Roosevelt Corner, California
Current Conditions -  °F | °C
As of 8:58 PM on Friday 19 Dec 2014 (Local Time) from KEDW Reporting Station
Broken Clouds Broken Clouds  
Wind Chill: 46°   Ceiling: 21000
Heat Index: 46°   Visibility: 40mi
Dew Point: 41°   Wind: 3mph
Humidity: 84%   Direction: 330°NNW
Pressure: 30.16"   Gusts: NA
Location:  34.7192°N, 117.884°W
Report Text: KEDW 200458Z 33003KT 40SM FEW150 BKN210 08/05 A3016 RMK AO2A SLP219 T00760050
Loading
Personal Weather Stations






























Interactive Weather Map New forecast layout! Learn more

10-Day Weather Forecast

Advertisements
Track Severe Weather on mobile